createdAt,value
2023-04-09T00:02:02.845Z,95.50
2023-04-09T00:05:25.841Z,99.91
2023-04-09T00:07:52.384Z,98.18
2023-04-09T00:10:19.110Z,97.90
2023-04-09T00:12:45.955Z,97.40
2023-04-09T00:15:20.620Z,97.53
2023-04-09T00:21:45.826Z,100.00
2023-04-09T00:24:12.654Z,100.00
2023-04-09T00:27:35.338Z,100.00
2023-04-09T00:34:27.089Z,97.08
2023-04-09T00:36:53.653Z,98.07
2023-04-09T00:40:16.565Z,100.00
2023-04-09T00:46:11.455Z,98.97
2023-04-09T00:53:15.376Z,100.00
2023-04-09T00:55:42.107Z,100.00
2023-04-09T00:58:08.901Z,100.00
2023-04-09T01:00:35.654Z,100.00
2023-04-09T01:06:49.774Z,99.74
2023-04-09T01:13:46.839Z,100.00
2023-04-09T01:16:16.414Z,100.00
2023-04-09T01:19:20.377Z,98.60
2023-04-09T01:42:03.963Z,100.00
2023-04-09T01:48:18.074Z,99.30
2023-04-09T01:50:45.282Z,100.00
2023-04-09T01:53:12.451Z,100.00
2023-04-09T02:09:37.484Z,97.37
2023-04-09T02:15:52.309Z,96.93
2023-04-09T02:23:00.814Z,97.17
2023-04-09T02:25:27.921Z,97.72
2023-04-09T02:31:34.977Z,98.81
2023-04-09T02:38:38.826Z,97.77
2023-04-09T02:41:05.340Z,98.38
2023-04-09T02:43:31.975Z,95.14
2023-04-09T02:50:07.548Z,96.87
2023-04-09T02:55:25.509Z,93.97
2023-04-09T02:57:52.135Z,97.85
2023-04-09T03:04:01.179Z,95.09
2023-04-09T03:10:14.771Z,95.65
2023-04-09T03:12:44.527Z,95.36
2023-04-09T03:15:12.157Z,96.81
2023-04-09T03:17:39.284Z,95.67
2023-04-09T03:21:02.027Z,96.24
2023-04-09T03:23:30.977Z,99.79
2023-04-09T03:26:02.226Z,99.84
2023-04-09T03:29:06.634Z,97.58
2023-04-09T03:31:33.670Z,97.68
2023-04-09T03:34:00.218Z,97.35
2023-04-09T03:37:22.850Z,98.15
2023-04-09T03:39:49.479Z,98.11
2023-04-09T03:42:16.148Z,97.38
2023-04-09T03:44:42.765Z,100.00
2023-04-09T03:48:05.824Z,99.59
2023-04-09T03:50:37.459Z,100.00
2023-04-09T03:54:00.320Z,98.74
2023-04-09T03:56:26.895Z,97.90
2023-04-09T03:59:50.072Z,98.44
2023-04-09T04:08:47.798Z,97.36
2023-04-09T04:11:14.475Z,99.71
2023-04-09T04:13:59.945Z,100.00
2023-04-09T04:16:26.571Z,98.78
2023-04-09T04:19:11.974Z,98.63
2023-04-09T04:21:39.139Z,97.63
2023-04-09T04:24:24.211Z,96.44
2023-04-09T04:26:50.924Z,97.20
2023-04-09T04:30:13.959Z,100.00
2023-04-09T04:32:40.829Z,98.43
2023-04-09T04:35:09.463Z,96.84
2023-04-09T04:37:36.055Z,96.99
2023-04-09T04:40:21.135Z,97.02
2023-04-09T04:45:38.229Z,97.30
2023-04-09T04:51:57.776Z,98.61
2023-04-09T04:55:02.076Z,95.80
2023-04-09T05:01:16.539Z,98.77
2023-04-09T05:07:12.005Z,100.00
2023-04-09T05:09:38.647Z,100.00
2023-04-09T05:16:23.674Z,100.00
2023-04-09T05:18:50.902Z,98.96
2023-04-09T05:22:14.242Z,96.10
2023-04-09T05:24:40.876Z,98.09
2023-04-09T05:27:07.454Z,95.77
2023-04-09T05:29:34.052Z,96.69
2023-04-09T05:35:47.218Z,100.00
2023-04-09T05:41:54.786Z,93.49
2023-04-09T05:47:31.387Z,94.48
2023-04-09T05:50:55.548Z,93.25
2023-04-09T05:53:41.353Z,88.14
2023-04-09T05:57:04.207Z,88.64
2023-04-09T06:03:12.115Z,87.66
2023-04-09T06:09:19.629Z,84.74
2023-04-09T06:12:23.620Z,87.38
2023-04-09T06:15:46.912Z,88.62
2023-04-09T06:18:13.769Z,89.92
2023-04-09T06:21:36.370Z,88.78
2023-04-09T06:24:03.030Z,89.13
2023-04-09T06:27:25.878Z,88.16
2023-04-09T06:34:29.619Z,86.06
2023-04-09T06:41:39.604Z,82.96
2023-04-09T06:44:06.430Z,89.98
2023-04-09T06:46:33.121Z,91.11
2023-04-09T06:49:50.138Z,93.28
2023-04-09T06:52:16.920Z,92.72
2023-04-09T06:55:20.962Z,87.80
2023-04-09T06:58:44.144Z,85.94
2023-04-09T07:01:12.257Z,90.68
2023-04-09T07:03:39.038Z,93.23
2023-04-09T07:06:06.081Z,89.99
2023-04-09T07:08:32.831Z,89.48
2023-04-09T07:14:39.829Z,87.21
2023-04-09T07:19:57.059Z,98.05
2023-04-09T07:22:26.768Z,94.36
2023-04-09T07:24:56.641Z,91.62
2023-04-09T07:27:25.353Z,96.16
2023-04-09T07:30:14.529Z,97.23
2023-04-09T07:32:41.390Z,83.37
2023-04-09T07:35:09.923Z,96.62
2023-04-09T07:37:55.814Z,89.69
2023-04-09T07:40:22.484Z,93.94
2023-04-09T07:42:49.685Z,92.62
2023-04-09T07:45:35.024Z,100.00
2023-04-09T07:48:20.567Z,93.08
2023-04-09T07:50:49.437Z,84.87
2023-04-09T07:53:16.584Z,89.15
2023-04-09T07:59:24.317Z,88.38
2023-04-09T08:01:51.016Z,82.31
2023-04-09T08:04:17.911Z,86.14
2023-04-09T08:06:49.964Z,78.09
2023-04-09T08:09:21.271Z,79.15
2023-04-09T08:11:49.048Z,81.57
2023-04-09T08:14:17.057Z,82.04
2023-04-09T08:16:48.581Z,75.92
2023-04-09T08:19:17.264Z,79.88
2023-04-09T08:21:44.332Z,78.27
2023-04-09T08:24:11.958Z,79.65
2023-04-09T08:26:39.949Z,78.14
2023-04-09T08:29:08.367Z,79.37
2023-04-09T08:35:22.382Z,74.55
2023-04-09T08:37:49.312Z,77.31
2023-04-09T08:40:16.041Z,74.45
2023-04-09T08:42:46.080Z,76.91
2023-04-09T08:45:13.351Z,74.85
2023-04-09T08:51:48.930Z,71.66
2023-04-09T08:58:07.299Z,71.06
2023-04-09T09:04:21.677Z,73.10
2023-04-09T09:06:48.420Z,75.13
2023-04-09T09:09:17.077Z,72.25
2023-04-09T09:11:48.711Z,71.68
2023-04-09T09:14:18.472Z,65.97
2023-04-09T09:17:42.643Z,71.36
2023-04-09T09:20:22.308Z,66.02
2023-04-09T09:22:55.388Z,71.57
2023-04-09T09:25:26.654Z,72.45
2023-04-09T09:27:54.278Z,71.34
2023-04-09T09:30:26.146Z,69.23
2023-04-09T09:33:32.395Z,69.21
2023-04-09T09:35:59.129Z,69.68
2023-04-09T09:39:21.918Z,69.50
2023-04-09T09:41:49.056Z,70.18
2023-04-09T09:44:33.607Z,66.49
2023-04-09T09:47:03.616Z,65.75
2023-04-09T09:57:31.154Z,67.32
2023-04-09T10:00:02.131Z,65.46
2023-04-09T10:02:34.845Z,70.18
2023-04-09T10:05:02.048Z,68.85
2023-04-09T10:07:30.909Z,66.68
2023-04-09T10:09:58.843Z,57.56
2023-04-09T10:12:27.281Z,63.75
2023-04-09T10:14:56.545Z,62.92
2023-04-09T10:17:23.224Z,68.42
2023-04-09T10:23:42.455Z,55.87
2023-04-09T10:26:09.276Z,63.27
2023-04-09T10:28:38.260Z,58.52
2023-04-09T10:31:07.627Z,59.00
2023-04-09T10:33:37.429Z,65.91
2023-04-09T10:36:44.344Z,60.48
2023-04-09T10:42:52.854Z,56.75
2023-04-09T10:49:21.120Z,54.44
2023-04-09T10:55:52.432Z,60.60
2023-04-09T10:58:19.410Z,57.45
2023-04-09T11:00:47.914Z,58.24
2023-04-09T11:06:45.259Z,58.08
2023-04-09T11:09:12.546Z,59.96
2023-04-09T11:12:35.170Z,50.44
2023-04-09T11:15:01.845Z,57.08
2023-04-09T11:21:10.992Z,56.82
2023-04-09T11:28:15.001Z,54.54
2023-04-09T11:34:33.839Z,58.96
2023-04-09T11:37:07.122Z,49.48
2023-04-09T11:39:37.219Z,50.16
2023-04-09T11:42:03.956Z,51.62
2023-04-09T11:44:31.230Z,57.48
2023-04-09T11:46:59.651Z,51.94
2023-04-09T11:49:26.435Z,54.12
2023-04-09T11:51:53.329Z,50.15
2023-04-09T11:54:19.909Z,56.84
2023-04-09T11:56:57.778Z,49.33
2023-04-09T11:59:24.642Z,60.49
2023-04-09T12:01:52.247Z,50.88
2023-04-09T12:04:22.200Z,52.90
2023-04-09T12:06:49.321Z,60.13
2023-04-09T12:09:16.556Z,52.36
2023-04-09T12:11:44.280Z,62.46
2023-04-09T12:14:17.824Z,52.02
2023-04-09T12:17:03.317Z,56.49
2023-04-09T12:19:30.298Z,56.02
2023-04-09T12:21:59.088Z,59.54
2023-04-09T12:24:28.248Z,54.67
2023-04-09T12:26:54.891Z,60.96
2023-04-09T12:29:21.754Z,59.73
2023-04-09T12:31:48.505Z,57.77
2023-04-09T12:34:15.143Z,52.24
2023-04-09T12:36:41.873Z,57.51
2023-04-09T12:39:11.185Z,59.03
2023-04-09T12:41:57.892Z,54.88
2023-04-09T12:44:24.522Z,60.61
2023-04-09T12:46:51.264Z,61.26
2023-04-09T12:49:18.328Z,59.08
2023-04-09T12:51:46.015Z,54.86
2023-04-09T12:54:14.649Z,50.20
2023-04-09T12:56:42.698Z,57.96
2023-04-09T12:59:09.350Z,57.13
2023-04-09T13:01:36.260Z,53.55
2023-04-09T13:04:03.213Z,53.09
2023-04-09T13:06:29.959Z,57.15
2023-04-09T13:08:56.764Z,54.51
2023-04-09T13:11:25.376Z,56.01
2023-04-09T13:13:52.442Z,58.71
2023-04-09T13:16:19.261Z,51.85
2023-04-09T13:18:46.460Z,52.26
2023-04-09T13:21:15.076Z,52.39
2023-04-09T13:23:47.553Z,58.39
2023-04-09T13:26:14.163Z,61.33
2023-04-09T13:28:59.988Z,51.77
2023-04-09T13:31:27.395Z,52.32
2023-04-09T13:34:12.961Z,52.51
2023-04-09T13:36:39.520Z,61.83
2023-04-09T13:39:07.904Z,51.73
2023-04-09T13:41:34.942Z,50.74
2023-04-09T13:44:02.453Z,58.02
2023-04-09T13:46:29.203Z,58.93
2023-04-09T13:48:58.141Z,54.10
2023-04-09T13:51:27.299Z,52.05
2023-04-09T13:53:53.991Z,59.22
2023-04-09T13:56:20.681Z,54.26
2023-04-09T13:58:48.315Z,48.51
2023-04-09T14:01:15.084Z,59.62
2023-04-09T14:03:43.309Z,48.96
2023-04-09T14:06:10.398Z,58.55
2023-04-09T14:08:40.220Z,47.01
2023-04-09T14:11:06.871Z,55.93
2023-04-09T14:13:33.632Z,57.08
2023-04-09T14:16:00.636Z,59.14
2023-04-09T14:18:27.518Z,58.60
2023-04-09T14:20:54.374Z,57.81
2023-04-09T14:23:21.028Z,58.30
2023-04-09T14:25:47.735Z,50.94
2023-04-09T14:28:18.417Z,49.99
2023-04-09T14:30:45.037Z,55.51
2023-04-09T14:33:11.734Z,47.78
2023-04-09T14:35:38.367Z,50.52
2023-04-09T14:38:04.952Z,57.34
2023-04-09T14:40:32.571Z,56.39
2023-04-09T14:43:00.292Z,53.48
2023-04-09T14:45:28.773Z,56.82
2023-04-09T14:47:56.691Z,58.15
2023-04-09T14:50:23.352Z,52.66
2023-04-09T14:52:51.328Z,55.27
2023-04-09T14:55:18.555Z,52.77
2023-04-09T14:57:48.387Z,57.52
2023-04-09T15:00:15.481Z,59.92
2023-04-09T15:03:01.340Z,50.92
2023-04-09T15:05:28.190Z,55.59
2023-04-09T15:07:55.202Z,59.28
2023-04-09T15:10:23.670Z,56.01
2023-04-09T15:12:50.471Z,55.21
2023-04-09T15:15:18.151Z,51.52
2023-04-09T15:17:44.791Z,51.49
2023-04-09T15:20:11.837Z,59.67
2023-04-09T15:22:38.465Z,60.09
2023-04-09T15:25:05.741Z,59.58
2023-04-09T15:27:32.784Z,57.19
2023-04-09T15:29:59.409Z,56.08
2023-04-09T15:32:29.445Z,53.54
2023-04-09T15:34:56.258Z,58.29
2023-04-09T15:37:23.225Z,58.88
2023-04-09T15:39:51.997Z,58.23
2023-04-09T15:42:22.573Z,59.17
2023-04-09T15:44:50.393Z,58.13
2023-04-09T15:47:18.482Z,56.95
2023-04-09T15:49:45.728Z,57.78
2023-04-09T15:52:12.561Z,55.70
2023-04-09T15:54:45.357Z,57.16
2023-04-09T15:57:12.104Z,52.93
2023-04-09T15:59:39.347Z,57.26
2023-04-09T16:02:06.628Z,55.45
2023-04-09T16:04:33.386Z,57.01
2023-04-09T16:07:02.327Z,55.00
2023-04-09T16:09:29.131Z,54.11
2023-04-09T16:11:55.807Z,57.17
2023-04-09T16:14:41.146Z,49.90
2023-04-09T16:17:07.903Z,51.82
2023-04-09T16:19:34.563Z,56.56
2023-04-09T16:22:19.629Z,52.45
2023-04-09T16:24:46.311Z,51.07
2023-04-09T16:27:32.376Z,54.67
2023-04-09T16:29:59.016Z,55.50
2023-04-09T16:32:25.978Z,54.99
2023-04-09T16:34:52.967Z,54.88
2023-04-09T16:37:19.805Z,58.44
2023-04-09T16:39:47.432Z,53.64
2023-04-09T16:42:14.139Z,55.49
2023-04-09T16:44:43.366Z,54.44
2023-04-09T16:47:10.091Z,53.23
2023-04-09T16:49:40.829Z,55.13
2023-04-09T16:52:07.466Z,56.43
2023-04-09T16:54:34.092Z,52.90
2023-04-09T16:57:02.569Z,52.25
2023-04-09T16:59:29.125Z,55.82
2023-04-09T17:01:55.812Z,58.76
2023-04-09T17:04:22.747Z,54.82
2023-04-09T17:06:49.954Z,56.30
2023-04-09T17:09:16.783Z,56.09
2023-04-09T17:12:01.878Z,53.10
2023-04-09T17:14:28.581Z,56.52
2023-04-09T17:16:56.776Z,58.90
2023-04-09T17:19:23.422Z,55.81
2023-04-09T17:21:50.002Z,58.58
2023-04-09T17:24:16.621Z,58.75
2023-04-09T17:26:43.248Z,58.89
2023-04-09T17:29:09.857Z,60.32
2023-04-09T17:31:36.504Z,58.30
2023-04-09T17:34:04.172Z,60.48
2023-04-09T17:36:31.918Z,60.41
2023-04-09T17:39:00.480Z,58.04
2023-04-09T17:41:29.314Z,58.71
2023-04-09T17:43:56.334Z,56.38
2023-04-09T17:46:23.872Z,59.45
2023-04-09T17:48:52.093Z,56.70
2023-04-09T17:51:20.004Z,60.80
2023-04-09T17:53:47.586Z,58.22
2023-04-09T17:56:16.023Z,59.68
2023-04-09T17:58:47.070Z,59.80
2023-04-09T18:01:15.676Z,60.47
2023-04-09T18:03:43.047Z,58.48
2023-04-09T18:06:10.032Z,60.96
2023-04-09T18:08:36.995Z,59.08
2023-04-09T18:11:12.903Z,59.88
2023-04-09T18:13:41.957Z,60.34
2023-04-09T18:16:46.464Z,60.38
2023-04-09T18:22:55.597Z,60.00
2023-04-09T18:25:23.354Z,59.59
2023-04-09T18:27:50.225Z,61.20
2023-04-09T18:33:57.381Z,62.76
2023-04-09T18:37:01.433Z,61.25
2023-04-09T18:40:24.492Z,61.98
2023-04-09T18:42:54.703Z,62.27
2023-04-09T18:46:17.683Z,61.39
2023-04-09T18:48:47.039Z,62.25
2023-04-09T18:52:10.450Z,62.67
2023-04-09T18:58:36.754Z,62.97
2023-04-09T19:01:12.585Z,63.47
2023-04-09T19:03:40.311Z,63.75
2023-04-09T19:06:14.666Z,63.45
2023-04-09T19:08:41.688Z,63.90
2023-04-09T19:11:08.345Z,63.83
2023-04-09T19:13:37.629Z,64.47
2023-04-09T19:16:05.353Z,64.43
2023-04-09T19:18:33.485Z,64.53
2023-04-09T19:21:00.208Z,64.89
2023-04-09T19:23:27.589Z,65.07
2023-04-09T19:25:55.794Z,65.09
2023-04-09T19:28:23.108Z,65.14
2023-04-09T19:30:53.684Z,65.18
2023-04-09T19:33:24.326Z,65.57
2023-04-09T19:39:38.767Z,65.84
2023-04-09T19:42:05.362Z,65.75
2023-04-09T19:44:32.149Z,65.88
2023-04-09T19:46:58.829Z,66.23
2023-04-09T19:49:25.584Z,66.36
2023-04-09T19:51:52.364Z,66.85
2023-04-09T19:59:35.207Z,66.67
2023-04-09T20:02:02.638Z,66.80
2023-04-09T20:04:31.138Z,66.90
2023-04-09T20:06:59.816Z,67.34
2023-04-09T20:09:26.550Z,67.16
2023-04-09T20:11:53.899Z,67.25
2023-04-09T20:14:39.542Z,67.41
2023-04-09T20:17:09.687Z,67.87
2023-04-09T20:19:37.969Z,67.55
2023-04-09T20:22:04.716Z,67.27
2023-04-09T20:24:32.387Z,67.45
2023-04-09T20:27:01.313Z,67.83
2023-04-09T20:29:27.950Z,67.86
2023-04-09T20:31:54.845Z,68.24
2023-04-09T20:34:40.055Z,69.65
2023-04-09T20:37:07.088Z,69.40
2023-04-09T20:39:33.691Z,68.09
2023-04-09T20:42:56.534Z,68.99
2023-04-09T20:45:23.134Z,69.94
2023-04-09T20:48:27.445Z,69.76
2023-04-09T20:50:54.016Z,69.42
2023-04-09T20:53:58.018Z,69.71
2023-04-09T20:57:15.229Z,71.50
2023-04-09T20:59:41.824Z,70.28
2023-04-09T21:02:58.653Z,70.38
2023-04-09T21:05:25.585Z,70.42
2023-04-09T21:07:52.892Z,69.16
2023-04-09T21:11:16.136Z,70.19
2023-04-09T21:13:53.668Z,69.98
2023-04-09T21:17:23.398Z,70.49
2023-04-09T21:19:51.581Z,69.97
2023-04-09T21:22:18.156Z,69.73
2023-04-09T21:24:44.712Z,70.22
2023-04-09T21:28:07.242Z,71.52
2023-04-09T21:30:34.681Z,70.25
2023-04-09T21:33:57.626Z,70.62
2023-04-09T21:40:10.810Z,70.69
2023-04-09T21:43:14.702Z,72.30
2023-04-09T21:45:41.400Z,70.88
2023-04-09T21:49:04.621Z,72.07
2023-04-09T21:51:32.409Z,71.04
2023-04-09T21:54:05.334Z,70.66
2023-04-09T21:56:36.656Z,70.26
2023-04-09T21:59:59.275Z,70.81
2023-04-09T22:03:04.375Z,70.29
2023-04-09T22:05:34.276Z,70.33
2023-04-09T22:08:19.680Z,71.04
2023-04-09T22:11:42.426Z,70.92
2023-04-09T22:17:37.597Z,71.09
2023-04-09T22:24:03.374Z,72.44
2023-04-09T22:31:07.104Z,72.17
2023-04-09T22:33:33.734Z,70.88
2023-04-09T22:36:38.078Z,73.42
2023-04-09T22:39:04.664Z,71.08
2023-04-09T22:41:31.558Z,72.61
2023-04-09T22:44:19.658Z,71.27
2023-04-09T22:46:46.389Z,69.93
2023-04-09T22:50:09.364Z,71.32
2023-04-09T22:52:35.919Z,71.30
2023-04-09T22:59:10.935Z,71.07
2023-04-09T23:05:55.359Z,73.51
2023-04-09T23:14:56.041Z,72.79
2023-04-09T23:18:18.779Z,74.37
2023-04-09T23:20:45.617Z,73.96
2023-04-09T23:24:08.826Z,75.05
2023-04-09T23:31:19.155Z,76.37
2023-04-09T23:34:41.525Z,74.40
2023-04-09T23:37:09.358Z,74.79
2023-04-09T23:47:05.988Z,74.93
2023-04-09T23:50:12.320Z,76.82
2023-04-09T23:52:39.006Z,74.08
2023-04-09T23:56:01.741Z,74.75
2023-04-09T23:58:28.567Z,75.70
